createdAt,value
2019-02-11T00:01:29.437Z,17.43
2019-02-11T00:04:00.821Z,18.47
2019-02-11T00:06:40.029Z,17.83
2019-02-11T00:09:19.223Z,17.07
2019-02-11T00:11:50.395Z,18.37
2019-02-11T00:14:21.729Z,18.10
2019-02-11T00:17:01.111Z,17.93
2019-02-11T00:19:32.628Z,18.43
2019-02-11T00:22:03.979Z,18.07
2019-02-11T00:24:35.752Z,18.47
2019-02-11T00:27:07.146Z,17.80
2019-02-11T00:29:38.317Z,17.63
2019-02-11T00:32:09.775Z,17.47
2019-02-11T00:34:41.177Z,18.20
2019-02-11T00:37:12.367Z,17.93
2019-02-11T00:39:43.799Z,17.27
2019-02-11T00:42:15.326Z,17.97
2019-02-11T00:44:46.657Z,17.87
2019-02-11T00:47:18.149Z,17.50
2019-02-11T00:49:49.405Z,17.17
2019-02-11T00:52:20.783Z,17.10
2019-02-11T00:54:52.129Z,16.90
2019-02-11T00:57:23.537Z,16.97
2019-02-11T00:59:54.953Z,17.57
2019-02-11T01:02:26.287Z,17.33
2019-02-11T01:04:57.610Z,16.80
2019-02-11T01:07:29.075Z,16.23
2019-02-11T01:10:00.311Z,16.73
2019-02-11T01:12:31.586Z,17.03
2019-02-11T01:15:02.891Z,17.23
2019-02-11T01:17:34.343Z,17.00
2019-02-11T01:20:07.083Z,16.60
2019-02-11T01:22:38.367Z,17.40
2019-02-11T01:25:09.859Z,16.77
2019-02-11T01:27:41.379Z,16.57
2019-02-11T01:30:13.297Z,16.07
2019-02-11T01:32:44.706Z,16.80
2019-02-11T01:35:16.141Z,16.83
2019-02-11T01:37:47.595Z,16.30
2019-02-11T01:40:18.909Z,16.77
2019-02-11T01:42:50.207Z,16.77
2019-02-11T01:45:21.521Z,16.00
2019-02-11T01:47:52.899Z,17.20
2019-02-11T01:50:24.575Z,16.37
2019-02-11T01:52:56.093Z,16.73
2019-02-11T01:55:27.455Z,16.23
2019-02-11T01:57:59.557Z,16.00
2019-02-11T02:00:30.866Z,16.63
2019-02-11T02:03:01.919Z,16.47
2019-02-11T02:05:34.531Z,16.67
2019-02-11T02:08:06.067Z,16.60
2019-02-11T02:10:37.387Z,15.57
2019-02-11T02:13:09.339Z,15.77
2019-02-11T02:15:40.599Z,16.33
2019-02-11T02:18:12.171Z,17.53
2019-02-11T02:20:43.539Z,16.43
2019-02-11T02:23:15.477Z,17.13
2019-02-11T02:25:46.813Z,16.23
2019-02-11T02:28:18.118Z,16.27
2019-02-11T02:30:49.367Z,15.90
2019-02-11T02:33:20.528Z,16.33
2019-02-11T02:35:51.894Z,15.70
2019-02-11T02:38:23.739Z,16.37
2019-02-11T02:40:55.217Z,15.67
2019-02-11T02:43:26.313Z,16.20
2019-02-11T02:45:57.587Z,16.87
2019-02-11T02:48:28.922Z,15.67
2019-02-11T02:51:00.088Z,14.50
2019-02-11T02:53:31.443Z,15.23
2019-02-11T02:56:02.975Z,15.73
2019-02-11T02:58:34.335Z,16.57
2019-02-11T03:01:05.806Z,15.43
2019-02-11T03:03:37.635Z,15.73
2019-02-11T03:06:08.917Z,15.30
2019-02-11T03:08:40.428Z,15.83
2019-02-11T03:11:11.687Z,15.23
2019-02-11T03:13:43.039Z,15.30
2019-02-11T03:16:14.386Z,16.10
2019-02-11T03:18:45.579Z,15.23
2019-02-11T03:21:16.631Z,15.60
2019-02-11T03:23:48.289Z,15.30
2019-02-11T03:26:19.589Z,15.30
2019-02-11T03:28:50.687Z,14.77
2019-02-11T03:31:22.189Z,14.63
2019-02-11T03:33:53.393Z,15.87
2019-02-11T03:36:24.808Z,14.80
2019-02-11T03:38:56.589Z,15.77
2019-02-11T03:41:28.071Z,15.40
2019-02-11T03:44:00.099Z,15.60
2019-02-11T03:46:31.322Z,14.67
2019-02-11T03:49:02.508Z,13.93
2019-02-11T03:51:33.764Z,14.53
2019-02-11T03:54:05.019Z,15.13
2019-02-11T03:56:36.712Z,14.47
2019-02-11T03:59:07.929Z,15.07
2019-02-11T04:01:39.253Z,14.97
2019-02-11T04:04:10.594Z,15.27
2019-02-11T04:06:41.916Z,13.90
2019-02-11T04:09:13.396Z,15.13
2019-02-11T04:11:44.691Z,14.47
2019-02-11T04:14:24.764Z,14.53
2019-02-11T04:16:49.448Z,15.27
2019-02-11T04:19:20.771Z,14.33
2019-02-11T04:22:09.713Z,14.80
2019-02-11T04:24:41.479Z,14.17
2019-02-11T04:27:12.855Z,14.30
2019-02-11T04:29:44.247Z,15.17
2019-02-11T04:32:15.604Z,14.23
2019-02-11T04:34:46.970Z,14.37
2019-02-11T04:37:18.637Z,14.47
2019-02-11T04:39:49.944Z,14.90
2019-02-11T04:42:21.475Z,14.93
2019-02-11T04:44:52.823Z,14.63
2019-02-11T04:47:24.286Z,14.43
2019-02-11T04:49:56.015Z,14.27
2019-02-11T04:52:27.277Z,14.47
2019-02-11T04:54:58.432Z,13.87
2019-02-11T04:57:30.167Z,13.90
2019-02-11T05:00:01.546Z,14.37
2019-02-11T05:02:33.017Z,13.87
2019-02-11T05:05:04.592Z,13.57
2019-02-11T05:07:35.894Z,13.73
2019-02-11T05:10:09.074Z,14.83
2019-02-11T05:12:40.362Z,14.07
2019-02-11T05:15:12.026Z,13.90
2019-02-11T05:17:43.921Z,14.13
2019-02-11T05:20:15.653Z,14.07
2019-02-11T05:22:47.335Z,13.53
2019-02-11T05:25:18.893Z,14.23
2019-02-11T05:27:50.546Z,13.87
2019-02-11T05:30:21.947Z,14.13
2019-02-11T05:32:53.425Z,13.90
2019-02-11T05:35:25.155Z,13.57
2019-02-11T05:37:56.640Z,14.00
2019-02-11T05:40:36.298Z,13.40
2019-02-11T05:43:07.779Z,12.93
2019-02-11T05:45:39.305Z,13.43
2019-02-11T05:48:10.784Z,13.47
2019-02-11T05:50:42.268Z,13.97
2019-02-11T05:53:13.982Z,12.53
2019-02-11T05:55:45.415Z,13.20
2019-02-11T05:58:16.991Z,13.47
2019-02-11T06:00:48.626Z,13.20
2019-02-11T06:03:20.085Z,12.70
2019-02-11T06:05:51.617Z,13.00
2019-02-11T06:08:22.840Z,12.87
2019-02-11T06:10:54.302Z,12.93
2019-02-11T06:13:25.836Z,13.00
2019-02-11T06:15:57.433Z,12.70
2019-02-11T06:18:28.959Z,12.47
2019-02-11T06:21:00.545Z,12.37
2019-02-11T06:23:39.929Z,12.43
2019-02-11T06:26:11.801Z,12.00
2019-02-11T06:28:51.065Z,12.43
2019-02-11T06:31:22.523Z,12.33
2019-02-11T06:33:54.295Z,12.10
2019-02-11T06:36:26.039Z,12.40
2019-02-11T06:38:58.108Z,12.53
2019-02-11T06:41:29.693Z,11.93
2019-02-11T06:44:09.525Z,11.90
2019-02-11T06:46:49.266Z,10.47
2019-02-11T06:49:28.963Z,11.97
2019-02-11T06:52:00.329Z,10.77
2019-02-11T06:54:32.103Z,11.07
2019-02-11T06:57:04.160Z,11.03
2019-02-11T06:59:35.502Z,10.50
2019-02-11T07:02:07.227Z,11.00
2019-02-11T07:04:38.843Z,11.00
2019-02-11T07:07:10.314Z,10.20
2019-02-11T07:09:49.549Z,10.77
2019-02-11T07:12:21.181Z,9.97
2019-02-11T07:14:53.421Z,10.47
2019-02-11T07:17:25.107Z,9.93
2019-02-11T07:19:57.129Z,9.63
2019-02-11T07:22:36.508Z,9.53
2019-02-11T07:25:07.989Z,10.17
2019-02-11T07:27:39.999Z,9.67
2019-02-11T07:30:20.749Z,9.57
2019-02-11T07:32:52.401Z,9.07
2019-02-11T07:35:24.987Z,9.23
2019-02-11T07:37:56.359Z,8.47
2019-02-11T07:40:29.403Z,9.23
2019-02-11T07:43:19.116Z,8.53
2019-02-11T07:46:05.529Z,9.20
2019-02-11T07:48:37.179Z,10.80
2019-02-11T07:51:09.155Z,9.73
2019-02-11T07:53:40.905Z,9.53
2019-02-11T07:56:20.138Z,9.57
2019-02-11T07:58:51.441Z,10.03
2019-02-11T08:01:22.978Z,9.63
2019-02-11T08:03:54.971Z,9.57
2019-02-11T08:06:34.219Z,9.27
2019-02-11T08:09:08.046Z,9.63
2019-02-11T08:11:39.681Z,9.93
2019-02-11T08:14:11.052Z,9.87
2019-02-11T08:16:43.126Z,9.77
2019-02-11T08:19:14.619Z,9.90
2019-02-11T08:21:54.754Z,8.90
2019-02-11T08:24:34.031Z,10.23
2019-02-11T08:27:05.813Z,9.30
2019-02-11T08:29:37.367Z,8.93
2019-02-11T08:32:08.736Z,9.50
2019-02-11T08:34:40.515Z,9.60
2019-02-11T08:37:12.058Z,8.67
2019-02-11T08:39:43.579Z,9.20
2019-02-11T08:42:15.058Z,9.37
2019-02-11T08:44:46.487Z,8.63
2019-02-11T08:47:19.411Z,9.20
2019-02-11T08:49:51.579Z,9.27
2019-02-11T08:52:24.863Z,9.40
2019-02-11T08:54:56.419Z,8.80
2019-02-11T08:57:36.233Z,9.80
2019-02-11T09:00:07.918Z,8.87
2019-02-11T09:02:39.825Z,8.53
2019-02-11T09:05:11.239Z,9.77
2019-02-11T09:07:43.001Z,8.50
2019-02-11T09:10:14.658Z,8.80
2019-02-11T09:12:46.885Z,8.50
2019-02-11T09:15:27.337Z,8.00
2019-02-11T09:17:58.933Z,8.03
2019-02-11T09:20:30.626Z,8.33
2019-02-11T09:23:02.130Z,7.87
2019-02-11T09:25:41.518Z,7.50
2019-02-11T09:28:12.921Z,8.10
2019-02-11T09:30:44.942Z,7.47
2019-02-11T09:33:16.503Z,7.80
2019-02-11T09:35:48.499Z,7.17
2019-02-11T09:38:19.805Z,7.77
2019-02-11T09:40:51.098Z,7.30
2019-02-11T09:43:22.741Z,7.13
2019-02-11T09:45:55.036Z,7.37
2019-02-11T09:48:26.459Z,7.10
2019-02-11T09:50:58.210Z,6.97
2019-02-11T09:53:29.765Z,7.40
2019-02-11T09:56:01.568Z,6.70
2019-02-11T09:58:33.118Z,6.27
2019-02-11T10:01:12.608Z,6.93
2019-02-11T10:03:46.210Z,6.73
2019-02-11T10:06:17.834Z,6.83
2019-02-11T10:08:57.087Z,6.60
2019-02-11T10:11:28.531Z,7.07
2019-02-11T10:14:00.066Z,6.80
2019-02-11T10:16:31.646Z,7.03
2019-02-11T10:19:14.780Z,6.93
2019-02-11T10:21:54.241Z,6.50
2019-02-11T10:24:25.835Z,6.50
2019-02-11T10:26:57.419Z,6.13
2019-02-11T10:29:29.005Z,5.93
2019-02-11T10:32:00.676Z,5.97
2019-02-11T10:34:32.129Z,6.10
2019-02-11T10:37:03.978Z,5.77
2019-02-11T10:39:35.569Z,5.70
2019-02-11T10:42:06.605Z,6.33
2019-02-11T10:44:38.321Z,5.93
2019-02-11T10:47:18.961Z,5.77
2019-02-11T10:49:51.055Z,6.17
2019-02-11T10:52:23.407Z,5.80
2019-02-11T10:54:54.963Z,5.60
2019-02-11T10:57:34.645Z,5.97
2019-02-11T11:00:16.789Z,5.40
2019-02-11T11:02:56.218Z,5.23
2019-02-11T11:05:27.651Z,5.60
2019-02-11T11:08:06.997Z,5.47
2019-02-11T11:10:38.789Z,5.00
2019-02-11T11:13:18.099Z,5.10
2019-02-11T11:15:58.118Z,5.70
2019-02-11T11:18:37.333Z,5.20
2019-02-11T11:21:16.817Z,5.00
2019-02-11T11:23:56.713Z,5.23
2019-02-11T11:26:36.449Z,5.10
2019-02-11T11:29:08.308Z,5.07
2019-02-11T11:31:48.285Z,5.53
2019-02-11T11:34:27.615Z,5.33
2019-02-11T11:37:07.633Z,5.03
2019-02-11T11:39:47.266Z,5.13
2019-02-11T11:42:19.081Z,5.07
2019-02-11T11:45:01.397Z,5.43
2019-02-11T11:47:40.387Z,5.40
2019-02-11T11:50:19.599Z,5.60
2019-02-11T11:52:51.903Z,4.83
2019-02-11T11:55:31.032Z,5.17
2019-02-11T11:58:02.558Z,5.27
2019-02-11T12:00:34.173Z,5.60
2019-02-11T12:03:06.229Z,4.83
2019-02-11T12:05:37.822Z,5.40
2019-02-11T12:08:19.152Z,5.40
2019-02-11T12:10:50.828Z,5.10
2019-02-11T12:13:23.807Z,4.93
2019-02-11T12:16:03.295Z,5.30
2019-02-11T12:18:42.629Z,5.43
2019-02-11T12:21:14.651Z,5.63
2019-02-11T12:23:46.200Z,5.43
2019-02-11T12:26:21.277Z,5.73
2019-02-11T12:28:50.928Z,4.67
2019-02-11T12:31:30.341Z,5.33
2019-02-11T12:34:02.187Z,5.50
2019-02-11T12:36:34.080Z,6.00
2019-02-11T12:39:06.051Z,5.57
2019-02-11T12:41:37.515Z,5.40
2019-02-11T12:44:09.226Z,5.50
2019-02-11T12:46:41.017Z,5.23
2019-02-11T12:49:12.644Z,5.57
2019-02-11T12:51:44.210Z,5.20
2019-02-11T12:54:23.323Z,5.10
2019-02-11T12:57:02.300Z,5.57
2019-02-11T12:59:33.620Z,5.10
2019-02-11T13:02:12.787Z,5.27
2019-02-11T13:04:51.833Z,4.93
2019-02-11T13:07:31.058Z,4.90
2019-02-11T13:10:02.544Z,4.93
2019-02-11T13:12:33.790Z,4.50
2019-02-11T13:15:05.882Z,5.40
2019-02-11T13:17:38.222Z,4.67
2019-02-11T13:20:20.333Z,5.03
2019-02-11T13:22:52.144Z,4.53
2019-02-11T13:25:23.561Z,4.93
2019-02-11T13:27:55.051Z,5.53
2019-02-11T13:30:26.667Z,4.43
2019-02-11T13:32:58.021Z,4.40
2019-02-11T13:35:37.154Z,4.47
2019-02-11T13:38:08.798Z,4.73
2019-02-11T13:40:47.742Z,5.17
2019-02-11T13:43:19.507Z,4.20
2019-02-11T13:45:58.665Z,4.93
2019-02-11T13:48:33.627Z,4.40
2019-02-11T13:51:03.295Z,4.50
2019-02-11T13:53:34.818Z,4.50
2019-02-11T13:56:13.896Z,4.33
2019-02-11T13:58:45.412Z,4.23
2019-02-11T14:01:16.719Z,4.50
2019-02-11T14:03:48.326Z,3.90
2019-02-11T14:06:28.906Z,4.43
2019-02-11T14:09:00.384Z,4.23
2019-02-11T14:11:39.561Z,4.27
2019-02-11T14:14:11.050Z,4.10
2019-02-11T14:16:42.409Z,4.07
2019-02-11T14:19:13.979Z,3.93
2019-02-11T14:21:45.405Z,4.50
2019-02-11T14:24:16.926Z,4.03
2019-02-11T14:26:48.300Z,4.47
2019-02-11T14:29:27.415Z,4.60
2019-02-11T14:31:59.134Z,4.90
2019-02-11T14:34:30.843Z,4.40
2019-02-11T14:37:10.188Z,3.93
2019-02-11T14:39:42.280Z,5.00
2019-02-11T14:42:14.866Z,4.40
2019-02-11T14:44:47.313Z,4.60
2019-02-11T14:47:19.282Z,4.27
2019-02-11T14:49:53.584Z,4.93
2019-02-11T14:52:32.621Z,5.43
2019-02-11T14:55:03.799Z,5.70
2019-02-11T14:57:35.213Z,6.07
2019-02-11T15:00:10.149Z,5.53
2019-02-11T15:02:42.064Z,5.93
2019-02-11T15:05:14.660Z,5.70
2019-02-11T15:07:46.361Z,5.20
2019-02-11T15:10:19.584Z,6.03
2019-02-11T15:12:51.093Z,5.70
2019-02-11T15:15:22.572Z,5.80
2019-02-11T15:17:54.105Z,5.50
2019-02-11T15:20:26.330Z,5.77
2019-02-11T15:22:57.897Z,6.03
2019-02-11T15:25:37.183Z,6.17
2019-02-11T15:28:08.607Z,6.50
2019-02-11T15:30:40.241Z,6.87
2019-02-11T15:33:11.758Z,6.47
2019-02-11T15:35:43.635Z,5.97
2019-02-11T15:38:15.167Z,6.97
2019-02-11T15:40:46.682Z,7.27
2019-02-11T15:43:18.074Z,8.07
2019-02-11T15:45:49.451Z,8.13
2019-02-11T15:48:28.964Z,7.50
2019-02-11T15:51:11.526Z,7.83
2019-02-11T15:53:50.571Z,8.27
2019-02-11T15:56:30.095Z,8.00
2019-02-11T15:59:09.492Z,7.17
2019-02-11T16:01:48.711Z,7.70
2019-02-11T16:04:28.411Z,7.50
2019-02-11T16:07:08.275Z,7.70
2019-02-11T16:09:47.517Z,7.63
2019-02-11T16:12:27.543Z,8.03
2019-02-11T16:15:08.207Z,8.23
2019-02-11T16:17:51.551Z,7.87
2019-02-11T16:20:30.790Z,7.60
2019-02-11T16:23:10.387Z,7.47
2019-02-11T16:25:52.600Z,7.77
2019-02-11T16:28:31.719Z,8.13
2019-02-11T16:31:10.940Z,7.23
2019-02-11T16:33:50.631Z,7.37
2019-02-11T16:36:32.765Z,7.17
2019-02-11T16:39:12.278Z,7.63
2019-02-11T16:41:51.707Z,6.97
2019-02-11T16:44:31.159Z,5.73
2019-02-11T16:47:10.457Z,7.10
2019-02-11T16:49:49.665Z,6.70
2019-02-11T16:52:21.567Z,7.17
2019-02-11T16:55:01.069Z,7.00
2019-02-11T16:57:40.318Z,6.60
2019-02-11T17:00:19.451Z,5.97
2019-02-11T17:02:50.674Z,6.03
2019-02-11T17:05:29.728Z,6.67
2019-02-11T17:08:08.914Z,6.17
2019-02-11T17:10:41.468Z,6.27
2019-02-11T17:13:20.892Z,6.17
2019-02-11T17:15:52.347Z,6.17
2019-02-11T17:18:23.939Z,5.50
2019-02-11T17:21:03.227Z,6.23
2019-02-11T17:23:34.935Z,6.20
2019-02-11T17:26:06.395Z,6.37
2019-02-11T17:28:37.730Z,6.80
2019-02-11T17:31:17.883Z,6.30
2019-02-11T17:33:57.261Z,5.90
2019-02-11T17:36:36.437Z,5.37
2019-02-11T17:39:15.817Z,5.60
2019-02-11T17:41:55.197Z,5.87
2019-02-11T17:44:34.759Z,5.77
2019-02-11T17:47:13.819Z,5.83
2019-02-11T17:49:56.017Z,5.10
2019-02-11T17:52:35.316Z,5.67
2019-02-11T17:55:17.204Z,5.23
2019-02-11T17:57:56.323Z,5.20
2019-02-11T18:00:40.735Z,5.27
2019-02-11T18:03:10.569Z,5.43
2019-02-11T18:05:50.026Z,5.20
2019-02-11T18:08:29.106Z,5.10
2019-02-11T18:11:08.118Z,5.10
2019-02-11T18:13:47.520Z,5.67
2019-02-11T18:16:19.035Z,5.00
2019-02-11T18:18:58.949Z,5.23
2019-02-11T18:21:38.541Z,5.17
2019-02-11T18:24:17.893Z,5.07
2019-02-11T18:26:57.627Z,5.10
2019-02-11T18:29:36.847Z,4.63
2019-02-11T18:32:16.229Z,4.47
2019-02-11T18:34:47.787Z,4.37
2019-02-11T18:37:27.411Z,4.67
2019-02-11T18:40:12.030Z,4.00
2019-02-11T18:42:51.530Z,4.20
2019-02-11T18:45:30.545Z,3.90
2019-02-11T18:48:12.827Z,4.50
2019-02-11T18:50:52.448Z,4.00
2019-02-11T18:53:31.749Z,4.37
2019-02-11T18:56:11.885Z,4.43
2019-02-11T18:58:50.931Z,4.40
2019-02-11T19:01:29.805Z,4.70
2019-02-11T19:04:01.963Z,5.03
2019-02-11T19:06:41.572Z,4.47
2019-02-11T19:09:18.667Z,4.43
2019-02-11T19:11:58.001Z,4.07
2019-02-11T19:14:29.554Z,4.60
2019-02-11T19:17:01.454Z,4.47
2019-02-11T19:19:32.831Z,4.43
2019-02-11T19:22:04.467Z,4.57
2019-02-11T19:24:43.745Z,4.53
2019-02-11T19:27:23.353Z,4.80
2019-02-11T19:29:54.708Z,4.00
2019-02-11T19:32:33.799Z,4.60
